sensor_id;sensor_type;location;lat;lon;timestamp;P1;durP1;ratioP1;P2;durP2;ratioP2
66830;SDS011;53739;44.224;22.528;2022-10-31T00:17:48;31.77;;;21.45;;
66830;SDS011;53739;44.224;22.528;2022-10-31T00:37:29;35.70;;;25.02;;
66830;SDS011;53739;44.224;22.528;2022-10-31T00:44:13;32.08;;;22.95;;
66830;SDS011;53739;44.224;22.528;2022-10-31T00:51:12;37.03;;;27.10;;
66830;SDS011;53739;44.224;22.528;2022-10-31T00:53:51;35.70;;;22.33;;
66830;SDS011;53739;44.224;22.528;2022-10-31T00:56:35;30.35;;;22.60;;
66830;SDS011;53739;44.224;22.528;2022-10-31T01:05:57;25.55;;;17.42;;
66830;SDS011;53739;44.224;22.528;2022-10-31T01:11:17;33.78;;;19.55;;
66830;SDS011;53739;44.224;22.528;2022-10-31T01:14:24;31.08;;;20.77;;
66830;SDS011;53739;44.224;22.528;2022-10-31T01:17:07;33.95;;;23.15;;
66830;SDS011;53739;44.224;22.528;2022-10-31T01:30:17;28.70;;;18.85;;
66830;SDS011;53739;44.224;22.528;2022-10-31T01:33:20;29.13;;;20.42;;
66830;SDS011;53739;44.224;22.528;2022-10-31T01:36:32;34.50;;;21.48;;
66830;SDS011;53739;44.224;22.528;2022-10-31T01:39:20;39.63;;;24.85;;
66830;SDS011;53739;44.224;22.528;2022-10-31T01:42:15;37.27;;;25.27;;
66830;SDS011;53739;44.224;22.528;2022-10-31T01:45:04;58.92;;;33.20;;
66830;SDS011;53739;44.224;22.528;2022-10-31T01:47:55;45.33;;;27.58;;
66830;SDS011;53739;44.224;22.528;2022-10-31T01:53:30;34.08;;;21.23;;
66830;SDS011;53739;44.224;22.528;2022-10-31T01:56:11;33.05;;;20.27;;
66830;SDS011;53739;44.224;22.528;2022-10-31T01:58:44;25.50;;;16.02;;
66830;SDS011;53739;44.224;22.528;2022-10-31T02:01:23;39.78;;;23.92;;
66830;SDS011;53739;44.224;22.528;2022-10-31T02:07:07;44.22;;;28.10;;
66830;SDS011;53739;44.224;22.528;2022-10-31T02:09:55;39.38;;;27.80;;
66830;SDS011;53739;44.224;22.528;2022-10-31T02:12:54;38.33;;;25.98;;
66830;SDS011;53739;44.224;22.528;2022-10-31T02:19:21;36.53;;;24.20;;
66830;SDS011;53739;44.224;22.528;2022-10-31T02:22:49;39.45;;;25.17;;
66830;SDS011;53739;44.224;22.528;2022-10-31T02:45:28;47.40;;;30.83;;
66830;SDS011;53739;44.224;22.528;2022-10-31T02:48:09;40.33;;;28.73;;
66830;SDS011;53739;44.224;22.528;2022-10-31T02:50:41;42.33;;;27.58;;
66830;SDS011;53739;44.224;22.528;2022-10-31T02:56:01;36.58;;;25.52;;
66830;SDS011;53739;44.224;22.528;2022-10-31T03:01:20;37.08;;;25.67;;
66830;SDS011;53739;44.224;22.528;2022-10-31T03:07:30;52.85;;;30.85;;
66830;SDS011;53739;44.224;22.528;2022-10-31T03:10:42;42.47;;;28.35;;
66830;SDS011;53739;44.224;22.528;2022-10-31T03:17:25;43.15;;;27.45;;
66830;SDS011;53739;44.224;22.528;2022-10-31T03:20:38;65.05;;;37.97;;
66830;SDS011;53739;44.224;22.528;2022-10-31T03:23:14;53.38;;;33.55;;
66830;SDS011;53739;44.224;22.528;2022-10-31T03:25:58;56.25;;;35.15;;
66830;SDS011;53739;44.224;22.528;2022-10-31T03:32:19;45.47;;;29.92;;
66830;SDS011;53739;44.224;22.528;2022-10-31T03:35:08;46.10;;;30.23;;
66830;SDS011;53739;44.224;22.528;2022-10-31T03:37:46;46.58;;;30.73;;
66830;SDS011;53739;44.224;22.528;2022-10-31T03:40:18;42.10;;;29.88;;
66830;SDS011;53739;44.224;22.528;2022-10-31T03:42:50;39.38;;;28.13;;
66830;SDS011;53739;44.224;22.528;2022-10-31T03:45:31;43.25;;;29.52;;
66830;SDS011;53739;44.224;22.528;2022-10-31T03:48:09;41.42;;;27.42;;
66830;SDS011;53739;44.224;22.528;2022-10-31T03:50:44;40.70;;;29.48;;
66830;SDS011;53739;44.224;22.528;2022-10-31T03:53:31;41.85;;;28.02;;
66830;SDS011;53739;44.224;22.528;2022-10-31T03:56:14;42.70;;;29.50;;
66830;SDS011;53739;44.224;22.528;2022-10-31T03:58:48;44.70;;;28.88;;
66830;SDS011;53739;44.224;22.528;2022-10-31T04:01:25;59.55;;;37.50;;
66830;SDS011;53739;44.224;22.528;2022-10-31T04:03:54;60.95;;;36.30;;
66830;SDS011;53739;44.224;22.528;2022-10-31T04:06:21;61.45;;;36.05;;
66830;SDS011;53739;44.224;22.528;2022-10-31T04:08:52;55.67;;;35.17;;
66830;SDS011;53739;44.224;22.528;2022-10-31T04:11:25;59.65;;;35.88;;
66830;SDS011;53739;44.224;22.528;2022-10-31T04:14:01;53.85;;;31.90;;
66830;SDS011;53739;44.224;22.528;2022-10-31T04:16:34;48.70;;;29.55;;
66830;SDS011;53739;44.224;22.528;2022-10-31T04:19:03;46.80;;;28.73;;
66830;SDS011;53739;44.224;22.528;2022-10-31T04:21:32;36.55;;;24.77;;
66830;SDS011;53739;44.224;22.528;2022-10-31T04:24:01;31.70;;;23.90;;
66830;SDS011;53739;44.224;22.528;2022-10-31T04:26:33;42.40;;;28.35;;
66830;SDS011;53739;44.224;22.528;2022-10-31T04:29:01;35.50;;;25.65;;
66830;SDS011;53739;44.224;22.528;2022-10-31T04:31:30;39.45;;;26.00;;
66830;SDS011;53739;44.224;22.528;2022-10-31T04:33:59;39.35;;;26.92;;
66830;SDS011;53739;44.224;22.528;2022-10-31T04:36:25;33.85;;;23.85;;
66830;SDS011;53739;44.224;22.528;2022-10-31T04:38:59;30.75;;;21.70;;
66830;SDS011;53739;44.224;22.528;2022-10-31T04:41:27;32.17;;;22.58;;
66830;SDS011;53739;44.224;22.528;2022-10-31T04:43:53;32.13;;;19.77;;
66830;SDS011;53739;44.224;22.528;2022-10-31T04:46:20;27.75;;;19.70;;
66830;SDS011;53739;44.224;22.528;2022-10-31T04:48:56;35.45;;;21.65;;
66830;SDS011;53739;44.224;22.528;2022-10-31T04:51:22;32.65;;;21.77;;
66830;SDS011;53739;44.224;22.528;2022-10-31T04:53:53;36.53;;;23.90;;
66830;SDS011;53739;44.224;22.528;2022-10-31T04:56:22;33.33;;;23.80;;
66830;SDS011;53739;44.224;22.528;2022-10-31T04:58:51;33.78;;;23.05;;
66830;SDS011;53739;44.224;22.528;2022-10-31T05:01:17;39.03;;;27.13;;
66830;SDS011;53739;44.224;22.528;2022-10-31T05:03:46;34.63;;;23.45;;
66830;SDS011;53739;44.224;22.528;2022-10-31T05:06:40;30.30;;;21.55;;
66830;SDS011;53739;44.224;22.528;2022-10-31T05:09:11;33.13;;;20.58;;
66830;SDS011;53739;44.224;22.528;2022-10-31T05:11:37;28.65;;;22.33;;
66830;SDS011;53739;44.224;22.528;2022-10-31T05:14:04;33.60;;;22.73;;
66830;SDS011;53739;44.224;22.528;2022-10-31T05:16:30;31.70;;;21.05;;
66830;SDS011;53739;44.224;22.528;2022-10-31T05:18:56;32.80;;;22.20;;
66830;SDS011;53739;44.224;22.528;2022-10-31T05:21:22;30.00;;;20.83;;
66830;SDS011;53739;44.224;22.528;2022-10-31T05:23:52;31.70;;;21.92;;
66830;SDS011;53739;44.224;22.528;2022-10-31T05:26:21;31.35;;;22.23;;
66830;SDS011;53739;44.224;22.528;2022-10-31T05:28:50;39.65;;;22.05;;
66830;SDS011;53739;44.224;22.528;2022-10-31T05:31:19;35.42;;;22.40;;
66830;SDS011;53739;44.224;22.528;2022-10-31T05:33:48;39.90;;;23.70;;
66830;SDS011;53739;44.224;22.528;2022-10-31T05:36:17;30.27;;;21.80;;
66830;SDS011;53739;44.224;22.528;2022-10-31T05:38:47;37.97;;;24.35;;
66830;SDS011;53739;44.224;22.528;2022-10-31T05:41:18;54.13;;;31.57;;
66830;SDS011;53739;44.224;22.528;2022-10-31T05:43:45;49.05;;;30.02;;
66830;SDS011;53739;44.224;22.528;2022-10-31T05:46:11;62.70;;;37.72;;
66830;SDS011;53739;44.224;22.528;2022-10-31T05:48:37;52.08;;;36.17;;
66830;SDS011;53739;44.224;22.528;2022-10-31T05:51:15;47.80;;;33.80;;
66830;SDS011;53739;44.224;22.528;2022-10-31T05:53:45;52.97;;;35.42;;
66830;SDS011;53739;44.224;22.528;2022-10-31T05:56:17;52.30;;;36.17;;
66830;SDS011;53739;44.224;22.528;2022-10-31T05:58:45;53.85;;;37.15;;
66830;SDS011;53739;44.224;22.528;2022-10-31T06:04:44;54.38;;;36.20;;
66830;SDS011;53739;44.224;22.528;2022-10-31T06:10:27;55.83;;;38.70;;
66830;SDS011;53739;44.224;22.528;2022-10-31T06:12:53;59.42;;;39.05;;
66830;SDS011;53739;44.224;22.528;2022-10-31T06:15:19;62.55;;;41.05;;
66830;SDS011;53739;44.224;22.528;2022-10-31T06:21:27;71.55;;;43.88;;
66830;SDS011;53739;44.224;22.528;2022-10-31T06:24:01;80.45;;;50.08;;
66830;SDS011;53739;44.224;22.528;2022-10-31T06:26:51;68.63;;;45.97;;
66830;SDS011;53739;44.224;22.528;2022-10-31T06:29:23;68.68;;;42.13;;
66830;SDS011;53739;44.224;22.528;2022-10-31T06:32:09;88.20;;;58.95;;
66830;SDS011;53739;44.224;22.528;2022-10-31T06:35:13;75.55;;;43.50;;
66830;SDS011;53739;44.224;22.528;2022-10-31T06:37:56;51.20;;;35.75;;
66830;SDS011;53739;44.224;22.528;2022-10-31T06:41:04;62.42;;;38.30;;
66830;SDS011;53739;44.224;22.528;2022-10-31T06:44:07;58.00;;;37.53;;
66830;SDS011;53739;44.224;22.528;2022-10-31T06:46:48;46.92;;;31.65;;
66830;SDS011;53739;44.224;22.528;2022-10-31T06:49:25;50.65;;;33.00;;
66830;SDS011;53739;44.224;22.528;2022-10-31T06:51:56;49.10;;;31.00;;
66830;SDS011;53739;44.224;22.528;2022-10-31T06:54:24;47.67;;;32.17;;
66830;SDS011;53739;44.224;22.528;2022-10-31T06:59:58;77.97;;;41.85;;
66830;SDS011;53739;44.224;22.528;2022-10-31T07:02:34;59.60;;;36.63;;
66830;SDS011;53739;44.224;22.528;2022-10-31T07:05:14;59.33;;;37.03;;
66830;SDS011;53739;44.224;22.528;2022-10-31T07:08:01;64.88;;;41.08;;
66830;SDS011;53739;44.224;22.528;2022-10-31T07:14:26;70.88;;;40.90;;
66830;SDS011;53739;44.224;22.528;2022-10-31T07:20:47;55.88;;;35.28;;
66830;SDS011;53739;44.224;22.528;2022-10-31T07:44:35;21.23;;;14.95;;
66830;SDS011;53739;44.224;22.528;2022-10-31T08:01:23;15.35;;;11.57;;
66830;SDS011;53739;44.224;22.528;2022-10-31T08:04:24;21.48;;;11.25;;
66830;SDS011;53739;44.224;22.528;2022-10-31T08:07:16;19.33;;;10.50;;
66830;SDS011;53739;44.224;22.528;2022-10-31T08:10:24;15.98;;;10.63;;
66830;SDS011;53739;44.224;22.528;2022-10-31T08:16:07;23.85;;;10.45;;
66830;SDS011;53739;44.224;22.528;2022-10-31T08:18:35;18.88;;;9.95;;
66830;SDS011;53739;44.224;22.528;2022-10-31T08:21:04;19.67;;;11.52;;
66830;SDS011;53739;44.224;22.528;2022-10-31T08:23:33;14.95;;;10.57;;
66830;SDS011;53739;44.224;22.528;2022-10-31T08:25:58;18.33;;;10.50;;
66830;SDS011;53739;44.224;22.528;2022-10-31T08:28:29;17.98;;;11.85;;
66830;SDS011;53739;44.224;22.528;2022-10-31T08:30:58;16.40;;;12.18;;
66830;SDS011;53739;44.224;22.528;2022-10-31T08:33:31;19.40;;;11.00;;
66830;SDS011;53739;44.224;22.528;2022-10-31T08:39:14;23.98;;;11.85;;
66830;SDS011;53739;44.224;22.528;2022-10-31T08:41:45;18.95;;;12.18;;
66830;SDS011;53739;44.224;22.528;2022-10-31T08:44:14;15.95;;;11.57;;
66830;SDS011;53739;44.224;22.528;2022-10-31T08:46:43;20.52;;;13.35;;
66830;SDS011;53739;44.224;22.528;2022-10-31T08:49:20;20.27;;;13.90;;
66830;SDS011;53739;44.224;22.528;2022-10-31T08:51:55;25.23;;;13.52;;
66830;SDS011;53739;44.224;22.528;2022-10-31T08:54:41;26.77;;;18.33;;
66830;SDS011;53739;44.224;22.528;2022-10-31T08:57:09;21.88;;;15.10;;
66830;SDS011;53739;44.224;22.528;2022-10-31T08:59:35;23.25;;;15.93;;
66830;SDS011;53739;44.224;22.528;2022-10-31T09:02:32;24.30;;;17.85;;
66830;SDS011;53739;44.224;22.528;2022-10-31T09:05:04;31.35;;;22.58;;
66830;SDS011;53739;44.224;22.528;2022-10-31T09:07:30;45.60;;;29.13;;
66830;SDS011;53739;44.224;22.528;2022-10-31T09:09:56;38.58;;;28.55;;
66830;SDS011;53739;44.224;22.528;2022-10-31T09:12:22;50.47;;;31.40;;
66830;SDS011;53739;44.224;22.528;2022-10-31T09:14:53;40.20;;;30.08;;
66830;SDS011;53739;44.224;22.528;2022-10-31T09:17:22;40.38;;;29.95;;
66830;SDS011;53739;44.224;22.528;2022-10-31T09:19:57;34.50;;;23.23;;
66830;SDS011;53739;44.224;22.528;2022-10-31T09:22:23;32.63;;;22.17;;
66830;SDS011;53739;44.224;22.528;2022-10-31T09:24:49;22.00;;;15.00;;
66830;SDS011;53739;44.224;22.528;2022-10-31T09:27:18;25.58;;;16.85;;
66830;SDS011;53739;44.224;22.528;2022-10-31T09:29:49;20.45;;;13.48;;
66830;SDS011;53739;44.224;22.528;2022-10-31T09:32:15;16.13;;;9.23;;
66830;SDS011;53739;44.224;22.528;2022-10-31T09:34:41;18.15;;;10.30;;
66830;SDS011;53739;44.224;22.528;2022-10-31T09:37:06;22.02;;;11.75;;
66830;SDS011;53739;44.224;22.528;2022-10-31T09:39:32;16.88;;;10.98;;
66830;SDS011;53739;44.224;22.528;2022-10-31T09:42:03;17.15;;;11.25;;
66830;SDS011;53739;44.224;22.528;2022-10-31T09:44:39;16.67;;;12.25;;
66830;SDS011;53739;44.224;22.528;2022-10-31T09:48:08;20.25;;;13.20;;
66830;SDS011;53739;44.224;22.528;2022-10-31T09:50:18;19.23;;;11.70;;
66830;SDS011;53739;44.224;22.528;2022-10-31T09:52:59;22.58;;;15.02;;
66830;SDS011;53739;44.224;22.528;2022-10-31T09:55:37;30.02;;;19.52;;
66830;SDS011;53739;44.224;22.528;2022-10-31T09:58:15;28.70;;;18.20;;
66830;SDS011;53739;44.224;22.528;2022-10-31T10:00:45;23.10;;;17.00;;
66830;SDS011;53739;44.224;22.528;2022-10-31T10:08:44;31.90;;;21.23;;
66830;SDS011;53739;44.224;22.528;2022-10-31T10:16:39;43.35;;;31.00;;
66830;SDS011;53739;44.224;22.528;2022-10-31T10:22:12;43.90;;;31.50;;
66830;SDS011;53739;44.224;22.528;2022-10-31T10:30:11;45.90;;;34.67;;
66830;SDS011;53739;44.224;22.528;2022-10-31T10:37:52;35.53;;;22.35;;
66830;SDS011;53739;44.224;22.528;2022-10-31T10:40:24;36.42;;;25.67;;
66830;SDS011;53739;44.224;22.528;2022-10-31T10:45:42;40.58;;;32.05;;
66830;SDS011;53739;44.224;22.528;2022-10-31T10:51:18;42.78;;;29.52;;
66830;SDS011;53739;44.224;22.528;2022-10-31T10:53:55;30.17;;;21.90;;
66830;SDS011;53739;44.224;22.528;2022-10-31T10:56:47;39.05;;;27.30;;
66830;SDS011;53739;44.224;22.528;2022-10-31T10:59:19;50.35;;;35.05;;
66830;SDS011;53739;44.224;22.528;2022-10-31T11:01:48;42.53;;;30.60;;
66830;SDS011;53739;44.224;22.528;2022-10-31T11:04:27;32.22;;;22.48;;
66830;SDS011;53739;44.224;22.528;2022-10-31T11:07:02;26.50;;;18.95;;
66830;SDS011;53739;44.224;22.528;2022-10-31T11:09:32;34.45;;;23.10;;
66830;SDS011;53739;44.224;22.528;2022-10-31T11:11:59;15.73;;;9.55;;
66830;SDS011;53739;44.224;22.528;2022-10-31T11:14:33;15.48;;;9.30;;
66830;SDS011;53739;44.224;22.528;2022-10-31T11:17:09;18.33;;;10.95;;
66830;SDS011;53739;44.224;22.528;2022-10-31T11:19:41;25.60;;;16.98;;
66830;SDS011;53739;44.224;22.528;2022-10-31T11:22:08;48.97;;;30.42;;
66830;SDS011;53739;44.224;22.528;2022-10-31T11:27:12;48.67;;;33.25;;
66830;SDS011;53739;44.224;22.528;2022-10-31T11:29:46;42.78;;;31.55;;
66830;SDS011;53739;44.224;22.528;2022-10-31T11:32:16;35.13;;;25.88;;
66830;SDS011;53739;44.224;22.528;2022-10-31T11:34:45;24.45;;;16.27;;
66830;SDS011;53739;44.224;22.528;2022-10-31T11:37:16;28.55;;;17.95;;
66830;SDS011;53739;44.224;22.528;2022-10-31T11:40:06;22.45;;;13.63;;
66830;SDS011;53739;44.224;22.528;2022-10-31T11:42:41;26.80;;;18.13;;
66830;SDS011;53739;44.224;22.528;2022-10-31T11:45:17;17.45;;;12.68;;
66830;SDS011;53739;44.224;22.528;2022-10-31T11:47:56;18.75;;;10.70;;
66830;SDS011;53739;44.224;22.528;2022-10-31T11:50:24;13.55;;;9.48;;
66830;SDS011;53739;44.224;22.528;2022-10-31T11:53:11;15.68;;;8.30;;
66830;SDS011;53739;44.224;22.528;2022-10-31T11:55:43;38.90;;;26.23;;
66830;SDS011;53739;44.224;22.528;2022-10-31T11:58:26;32.50;;;22.05;;
66830;SDS011;53739;44.224;22.528;2022-10-31T12:00:55;21.20;;;13.45;;
66830;SDS011;53739;44.224;22.528;2022-10-31T12:05:56;35.13;;;25.02;;
66830;SDS011;53739;44.224;22.528;2022-10-31T12:08:30;44.25;;;31.17;;
66830;SDS011;53739;44.224;22.528;2022-10-31T12:16:52;38.40;;;22.35;;
66830;SDS011;53739;44.224;22.528;2022-10-31T12:19:42;18.13;;;11.93;;
66830;SDS011;53739;44.224;22.528;2022-10-31T12:22:46;23.00;;;14.40;;
66830;SDS011;53739;44.224;22.528;2022-10-31T12:28:22;16.55;;;8.35;;
66830;SDS011;53739;44.224;22.528;2022-10-31T12:39:32;19.15;;;9.02;;
66830;SDS011;53739;44.224;22.528;2022-10-31T12:42:05;15.25;;;9.32;;
66830;SDS011;53739;44.224;22.528;2022-10-31T12:49:54;46.45;;;28.85;;
66830;SDS011;53739;44.224;22.528;2022-10-31T12:55:39;40.05;;;28.88;;
66830;SDS011;53739;44.224;22.528;2022-10-31T12:58:21;43.00;;;25.15;;
66830;SDS011;53739;44.224;22.528;2022-10-31T13:01:06;25.52;;;14.38;;
66830;SDS011;53739;44.224;22.528;2022-10-31T13:06:09;36.30;;;20.38;;
66830;SDS011;53739;44.224;22.528;2022-10-31T13:09:01;38.05;;;22.92;;
66830;SDS011;53739;44.224;22.528;2022-10-31T13:11:35;31.80;;;19.67;;
66830;SDS011;53739;44.224;22.528;2022-10-31T13:16:51;35.25;;;24.27;;
66830;SDS011;53739;44.224;22.528;2022-10-31T13:19:23;28.48;;;18.73;;
66830;SDS011;53739;44.224;22.528;2022-10-31T13:22:03;39.35;;;22.27;;
66830;SDS011;53739;44.224;22.528;2022-10-31T13:27:20;32.67;;;19.95;;
66830;SDS011;53739;44.224;22.528;2022-10-31T13:40:51;20.73;;;13.70;;
66830;SDS011;53739;44.224;22.528;2022-10-31T13:48:58;33.72;;;22.08;;
66830;SDS011;53739;44.224;22.528;2022-10-31T13:51:25;35.92;;;24.17;;
66830;SDS011;53739;44.224;22.528;2022-10-31T13:56:29;38.72;;;23.73;;
66830;SDS011;53739;44.224;22.528;2022-10-31T14:01:35;42.95;;;26.10;;
66830;SDS011;53739;44.224;22.528;2022-10-31T14:04:06;45.22;;;28.27;;
66830;SDS011;53739;44.224;22.528;2022-10-31T14:06:54;39.72;;;27.75;;
66830;SDS011;53739;44.224;22.528;2022-10-31T14:09:31;36.80;;;24.83;;
66830;SDS011;53739;44.224;22.528;2022-10-31T14:15:04;34.90;;;22.80;;
66830;SDS011;53739;44.224;22.528;2022-10-31T14:17:38;29.05;;;19.63;;
66830;SDS011;53739;44.224;22.528;2022-10-31T14:22:58;35.55;;;22.25;;
66830;SDS011;53739;44.224;22.528;2022-10-31T14:25:51;41.15;;;26.88;;
66830;SDS011;53739;44.224;22.528;2022-10-31T14:29:03;50.15;;;30.33;;
66830;SDS011;53739;44.224;22.528;2022-10-31T14:35:24;29.48;;;17.92;;
66830;SDS011;53739;44.224;22.528;2022-10-31T14:44:41;16.55;;;9.70;;
66830;SDS011;53739;44.224;22.528;2022-10-31T14:57:42;14.63;;;8.43;;
66830;SDS011;53739;44.224;22.528;2022-10-31T15:00:23;17.70;;;9.10;;
66830;SDS011;53739;44.224;22.528;2022-10-31T15:06:11;16.65;;;8.18;;
66830;SDS011;53739;44.224;22.528;2022-10-31T15:11:53;18.40;;;8.30;;
66830;SDS011;53739;44.224;22.528;2022-10-31T15:14:26;16.00;;;8.32;;
66830;SDS011;53739;44.224;22.528;2022-10-31T15:17:01;14.73;;;7.97;;
66830;SDS011;53739;44.224;22.528;2022-10-31T15:19:30;19.75;;;8.40;;
66830;SDS011;53739;44.224;22.528;2022-10-31T15:21:59;14.57;;;9.15;;
66830;SDS011;53739;44.224;22.528;2022-10-31T15:30:59;17.67;;;8.23;;
66830;SDS011;53739;44.224;22.528;2022-10-31T15:33:38;13.13;;;7.43;;
66830;SDS011;53739;44.224;22.528;2022-10-31T15:36:26;14.60;;;7.65;;
66830;SDS011;53739;44.224;22.528;2022-10-31T15:38:52;17.27;;;8.18;;
66830;SDS011;53739;44.224;22.528;2022-10-31T15:54:58;20.77;;;12.02;;
66830;SDS011;53739;44.224;22.528;2022-10-31T16:00:42;20.30;;;13.80;;
66830;SDS011;53739;44.224;22.528;2022-10-31T16:06:17;25.92;;;16.50;;
66830;SDS011;53739;44.224;22.528;2022-10-31T16:15:59;42.40;;;25.20;;
66830;SDS011;53739;44.224;22.528;2022-10-31T16:18:34;39.83;;;25.08;;
66830;SDS011;53739;44.224;22.528;2022-10-31T16:21:08;48.05;;;25.60;;
66830;SDS011;53739;44.224;22.528;2022-10-31T16:28:17;58.47;;;31.05;;
66830;SDS011;53739;44.224;22.528;2022-10-31T16:31:37;51.78;;;31.52;;
66830;SDS011;53739;44.224;22.528;2022-10-31T16:34:14;53.22;;;36.33;;
66830;SDS011;53739;44.224;22.528;2022-10-31T16:43:16;73.35;;;47.03;;
66830;SDS011;53739;44.224;22.528;2022-10-31T16:45:53;72.50;;;48.35;;
66830;SDS011;53739;44.224;22.528;2022-10-31T16:49:07;80.43;;;52.13;;
66830;SDS011;53739;44.224;22.528;2022-10-31T16:51:37;74.72;;;47.88;;
66830;SDS011;53739;44.224;22.528;2022-10-31T16:54:41;85.28;;;55.05;;
66830;SDS011;53739;44.224;22.528;2022-10-31T16:57:11;70.13;;;41.70;;
66830;SDS011;53739;44.224;22.528;2022-10-31T17:00:23;79.78;;;44.60;;
66830;SDS011;53739;44.224;22.528;2022-10-31T17:02:55;91.65;;;56.17;;
66830;SDS011;53739;44.224;22.528;2022-10-31T17:08:11;60.83;;;39.35;;
66830;SDS011;53739;44.224;22.528;2022-10-31T17:10:54;65.80;;;45.15;;
66830;SDS011;53739;44.224;22.528;2022-10-31T17:13:25;91.60;;;54.63;;
66830;SDS011;53739;44.224;22.528;2022-10-31T17:15:57;65.47;;;41.63;;
66830;SDS011;53739;44.224;22.528;2022-10-31T17:18:38;71.80;;;42.35;;
66830;SDS011;53739;44.224;22.528;2022-10-31T17:21:04;58.95;;;37.53;;
66830;SDS011;53739;44.224;22.528;2022-10-31T17:26:20;54.95;;;33.53;;
66830;SDS011;53739;44.224;22.528;2022-10-31T17:29:18;44.45;;;27.83;;
66830;SDS011;53739;44.224;22.528;2022-10-31T17:31:47;52.03;;;39.38;;
66830;SDS011;53739;44.224;22.528;2022-10-31T17:40:25;31.65;;;23.80;;
66830;SDS011;53739;44.224;22.528;2022-10-31T17:42:55;38.63;;;26.83;;
66830;SDS011;53739;44.224;22.528;2022-10-31T17:48:36;46.70;;;31.05;;
66830;SDS011;53739;44.224;22.528;2022-10-31T17:54:38;47.22;;;31.98;;
66830;SDS011;53739;44.224;22.528;2022-10-31T17:57:04;42.78;;;29.88;;
66830;SDS011;53739;44.224;22.528;2022-10-31T17:59:30;51.05;;;33.92;;
66830;SDS011;53739;44.224;22.528;2022-10-31T18:05:08;49.13;;;33.03;;
66830;SDS011;53739;44.224;22.528;2022-10-31T18:07:34;49.72;;;30.63;;
66830;SDS011;53739;44.224;22.528;2022-10-31T18:10:00;50.33;;;32.80;;
66830;SDS011;53739;44.224;22.528;2022-10-31T18:12:26;59.88;;;34.63;;
66830;SDS011;53739;44.224;22.528;2022-10-31T18:14:52;52.60;;;35.15;;
66830;SDS011;53739;44.224;22.528;2022-10-31T18:17:21;57.47;;;35.50;;
66830;SDS011;53739;44.224;22.528;2022-10-31T18:19:53;56.70;;;38.63;;
66830;SDS011;53739;44.224;22.528;2022-10-31T18:26:17;55.25;;;34.45;;
66830;SDS011;53739;44.224;22.528;2022-10-31T18:28:46;57.75;;;38.00;;
66830;SDS011;53739;44.224;22.528;2022-10-31T18:31:27;75.13;;;46.30;;
66830;SDS011;53739;44.224;22.528;2022-10-31T18:37:20;66.30;;;42.00;;
66830;SDS011;53739;44.224;22.528;2022-10-31T18:39:56;64.60;;;42.50;;
66830;SDS011;53739;44.224;22.528;2022-10-31T18:42:22;68.43;;;43.05;;
66830;SDS011;53739;44.224;22.528;2022-10-31T18:44:54;67.25;;;44.58;;
66830;SDS011;53739;44.224;22.528;2022-10-31T18:47:29;66.38;;;42.58;;
66830;SDS011;53739;44.224;22.528;2022-10-31T18:50:10;69.20;;;46.28;;
66830;SDS011;53739;44.224;22.528;2022-10-31T18:52:42;67.85;;;45.85;;
66830;SDS011;53739;44.224;22.528;2022-10-31T18:55:11;67.72;;;45.75;;
66830;SDS011;53739;44.224;22.528;2022-10-31T18:57:39;69.93;;;46.65;;
66830;SDS011;53739;44.224;22.528;2022-10-31T19:00:05;72.25;;;47.08;;
66830;SDS011;53739;44.224;22.528;2022-10-31T19:06:03;65.32;;;42.90;;
66830;SDS011;53739;44.224;22.528;2022-10-31T19:08:54;67.65;;;43.47;;
66830;SDS011;53739;44.224;22.528;2022-10-31T19:11:33;66.88;;;43.58;;
66830;SDS011;53739;44.224;22.528;2022-10-31T19:14:03;68.93;;;42.92;;
66830;SDS011;53739;44.224;22.528;2022-10-31T19:16:34;60.67;;;40.30;;
66830;SDS011;53739;44.224;22.528;2022-10-31T19:19:07;66.70;;;45.05;;
66830;SDS011;53739;44.224;22.528;2022-10-31T19:21:55;67.00;;;43.80;;
66830;SDS011;53739;44.224;22.528;2022-10-31T19:24:36;73.35;;;43.55;;
66830;SDS011;53739;44.224;22.528;2022-10-31T19:27:21;72.30;;;42.80;;
66830;SDS011;53739;44.224;22.528;2022-10-31T19:30:01;75.90;;;47.00;;
66830;SDS011;53739;44.224;22.528;2022-10-31T19:32:59;72.30;;;50.58;;
66830;SDS011;53739;44.224;22.528;2022-10-31T19:35:48;79.88;;;51.20;;
66830;SDS011;53739;44.224;22.528;2022-10-31T19:38:19;89.25;;;62.38;;
66830;SDS011;53739;44.224;22.528;2022-10-31T19:41:37;79.75;;;52.63;;
66830;SDS011;53739;44.224;22.528;2022-10-31T19:44:40;76.15;;;50.47;;
66830;SDS011;53739;44.224;22.528;2022-10-31T19:47:18;69.15;;;47.17;;
66830;SDS011;53739;44.224;22.528;2022-10-31T19:49:54;63.22;;;42.28;;
66830;SDS011;53739;44.224;22.528;2022-10-31T19:52:49;58.83;;;39.22;;
66830;SDS011;53739;44.224;22.528;2022-10-31T19:55:21;63.50;;;40.15;;
66830;SDS011;53739;44.224;22.528;2022-10-31T19:57:49;56.35;;;38.33;;
66830;SDS011;53739;44.224;22.528;2022-10-31T20:00:21;67.22;;;39.58;;
66830;SDS011;53739;44.224;22.528;2022-10-31T20:03:19;68.03;;;40.28;;
66830;SDS011;53739;44.224;22.528;2022-10-31T20:06:37;63.10;;;40.95;;
66830;SDS011;53739;44.224;22.528;2022-10-31T20:09:46;64.20;;;40.40;;
66830;SDS011;53739;44.224;22.528;2022-10-31T20:15:12;62.60;;;41.40;;
66830;SDS011;53739;44.224;22.528;2022-10-31T20:17:40;66.30;;;42.95;;
66830;SDS011;53739;44.224;22.528;2022-10-31T20:20:10;64.93;;;43.10;;
66830;SDS011;53739;44.224;22.528;2022-10-31T20:22:52;68.13;;;44.42;;
66830;SDS011;53739;44.224;22.528;2022-10-31T20:25:19;70.38;;;44.42;;
66830;SDS011;53739;44.224;22.528;2022-10-31T20:28:01;60.30;;;42.88;;
66830;SDS011;53739;44.224;22.528;2022-10-31T20:30:42;67.93;;;43.75;;
66830;SDS011;53739;44.224;22.528;2022-10-31T20:33:30;64.07;;;41.58;;
66830;SDS011;53739;44.224;22.528;2022-10-31T20:36:28;65.30;;;41.25;;
66830;SDS011;53739;44.224;22.528;2022-10-31T20:39:03;65.50;;;41.83;;
66830;SDS011;53739;44.224;22.528;2022-10-31T20:41:43;67.68;;;43.15;;
66830;SDS011;53739;44.224;22.528;2022-10-31T20:44:24;67.45;;;40.80;;
66830;SDS011;53739;44.224;22.528;2022-10-31T20:47:06;64.72;;;41.95;;
66830;SDS011;53739;44.224;22.528;2022-10-31T20:49:40;60.67;;;41.50;;
66830;SDS011;53739;44.224;22.528;2022-10-31T20:52:09;67.93;;;43.88;;
66830;SDS011;53739;44.224;22.528;2022-10-31T20:54:40;69.78;;;43.42;;
66830;SDS011;53739;44.224;22.528;2022-10-31T20:57:07;73.63;;;43.35;;
66830;SDS011;53739;44.224;22.528;2022-10-31T21:10:27;93.82;;;62.13;;
66830;SDS011;53739;44.224;22.528;2022-10-31T21:17:11;95.57;;;59.33;;
66830;SDS011;53739;44.224;22.528;2022-10-31T21:19:45;86.75;;;57.85;;
66830;SDS011;53739;44.224;22.528;2022-10-31T21:26:26;81.47;;;52.03;;
66830;SDS011;53739;44.224;22.528;2022-10-31T21:28:55;76.43;;;48.33;;
66830;SDS011;53739;44.224;22.528;2022-10-31T21:54:45;67.78;;;43.95;;
66830;SDS011;53739;44.224;22.528;2022-10-31T21:57:50;71.45;;;43.65;;
66830;SDS011;53739;44.224;22.528;2022-10-31T22:00:53;63.58;;;40.33;;